Terminal Aerodrome Forecast
Issued by NWS North Platte, NE

Home | Current Version | Previous Version | Text Only | Print | Product List | Glossary On
Versions: 1 2 3 4 5 6 7 8 9 10 11 12 13 14 15 16 17 18 19 20 21
000
FTUS43 KLBF 261100
TAFLBF
TAF
KLBF 261137Z 2612/2712 34009KT P6SM SCT018 BKN060
     FM261600 32009KT P6SM SCT018 SCT025 BKN060
     FM270000 VRB03KT P6SM SCT080=

USA.gov is the U.S. government's official web portal to all federal, state and local government web resources and services.